createdAt,value
2022-10-17T00:03:52.842Z,16.34
2022-10-17T00:07:55.190Z,16.33
2022-10-17T00:11:56.670Z,16.34
2022-10-17T00:15:58.438Z,16.34
2022-10-17T00:20:00.687Z,16.32
2022-10-17T00:24:02.236Z,16.30
2022-10-17T00:28:03.918Z,16.30
2022-10-17T00:32:05.621Z,16.27
2022-10-17T00:36:10.677Z,16.26
2022-10-17T00:40:12.651Z,16.25
2022-10-17T00:44:29.479Z,16.25
2022-10-17T00:48:31.102Z,16.17
2022-10-17T00:52:33.056Z,16.13
2022-10-17T00:56:34.695Z,16.07
2022-10-17T01:00:36.929Z,16.03
2022-10-17T01:04:41.415Z,16.01
2022-10-17T01:08:43.051Z,16.01
2022-10-17T01:13:07.931Z,15.98
2022-10-17T01:17:52.368Z,15.95
2022-10-17T01:22:05.819Z,15.92
2022-10-17T01:26:16.360Z,15.92
2022-10-17T01:30:53.027Z,15.89
2022-10-17T01:35:03.345Z,15.89
2022-10-17T01:39:14.730Z,15.86
2022-10-17T01:43:41.238Z,15.85
2022-10-17T01:47:43.165Z,15.84
2022-10-17T01:51:49.423Z,15.81
2022-10-17T02:00:00.778Z,15.81
2022-10-17T02:04:03.617Z,15.81
2022-10-17T02:08:07.561Z,15.81
2022-10-17T02:12:24.934Z,15.80
2022-10-17T02:16:35.894Z,15.80
2022-10-17T02:20:46.718Z,15.78
2022-10-17T02:25:00.468Z,15.78
2022-10-17T02:29:10.790Z,15.77
2022-10-17T02:33:29.497Z,15.76
2022-10-17T02:37:32.296Z,15.74
2022-10-17T02:41:37.825Z,15.76
2022-10-17T02:45:40.264Z,15.73
2022-10-17T02:49:47.445Z,15.73
2022-10-17T02:53:55.568Z,15.70
2022-10-17T02:58:02.653Z,15.71
2022-10-17T03:02:05.997Z,15.68
2022-10-17T03:06:07.707Z,15.67
2022-10-17T03:10:09.391Z,15.66
2022-10-17T03:14:11.490Z,15.67
2022-10-17T03:18:13.284Z,15.68
2022-10-17T03:22:14.857Z,15.68
2022-10-17T03:26:19.585Z,15.68
2022-10-17T03:30:21.683Z,15.68
2022-10-17T03:34:25.668Z,15.68
2022-10-17T03:38:27.338Z,15.67
2022-10-17T03:42:28.985Z,15.64
2022-10-17T03:46:30.556Z,15.60
2022-10-17T03:50:34.436Z,15.56
2022-10-17T03:54:36.076Z,15.53
2022-10-17T03:58:37.803Z,15.51
2022-10-17T04:02:39.919Z,15.51
2022-10-17T04:06:42.260Z,15.51
2022-10-17T04:10:45.431Z,15.49
2022-10-17T04:14:46.974Z,15.48
2022-10-17T04:18:56.789Z,15.46
2022-10-17T04:23:00.897Z,15.44
2022-10-17T04:27:02.840Z,15.41
2022-10-17T04:31:11.584Z,15.41
2022-10-17T04:35:33.238Z,15.38
2022-10-17T04:39:38.129Z,15.38
2022-10-17T04:43:41.066Z,15.34
2022-10-17T04:47:42.936Z,15.33
2022-10-17T04:51:44.701Z,15.30
2022-10-17T04:56:15.482Z,15.27
2022-10-17T05:00:17.384Z,15.27
2022-10-17T05:04:46.011Z,15.27
2022-10-17T05:08:49.597Z,15.25
2022-10-17T05:12:53.413Z,15.22
2022-10-17T05:16:58.029Z,15.20
2022-10-17T05:21:00.116Z,15.20
2022-10-17T05:25:02.432Z,15.19
2022-10-17T05:29:04.264Z,15.18
2022-10-17T05:33:09.225Z,15.18
2022-10-17T05:37:11.222Z,15.16
2022-10-17T05:41:14.295Z,15.13
2022-10-17T05:45:16.341Z,15.12
2022-10-17T05:49:32.171Z,15.11
2022-10-17T05:53:37.756Z,15.09
2022-10-17T05:57:41.446Z,15.07
2022-10-17T06:01:48.764Z,15.09
2022-10-17T06:05:51.840Z,15.11
2022-10-17T06:09:53.570Z,15.12
2022-10-17T06:13:55.167Z,15.13
2022-10-17T06:17:59.865Z,15.13
2022-10-17T06:22:01.442Z,15.13
2022-10-17T06:26:05.960Z,15.13
2022-10-17T06:30:08.664Z,15.12
2022-10-17T06:34:10.562Z,15.15
2022-10-17T06:38:13.889Z,15.16
2022-10-17T06:42:15.700Z,15.20
2022-10-17T06:46:36.593Z,15.22
2022-10-17T06:50:40.154Z,15.30
2022-10-17T06:54:55.083Z,15.31
2022-10-17T06:59:06.075Z,15.35
2022-10-17T07:03:10.151Z,15.41
2022-10-17T07:07:11.735Z,15.46
2022-10-17T07:11:16.483Z,15.49
2022-10-17T07:15:18.231Z,15.53
2022-10-17T07:19:20.389Z,15.58
2022-10-17T07:23:23.133Z,15.64
2022-10-17T07:27:25.045Z,15.70
2022-10-17T07:31:26.919Z,15.77
2022-10-17T07:35:28.704Z,15.88
2022-10-17T07:39:31.201Z,15.95
2022-10-17T07:43:34.206Z,15.99
2022-10-17T07:47:36.495Z,16.11
2022-10-17T07:51:41.184Z,16.22
2022-10-17T07:55:43.270Z,16.32
2022-10-17T07:59:44.908Z,16.40
2022-10-17T08:03:48.703Z,16.48
2022-10-17T08:07:50.362Z,16.60
2022-10-17T08:11:52.038Z,16.67
2022-10-17T08:15:53.617Z,16.77
2022-10-17T08:19:55.199Z,16.87
2022-10-17T08:23:57.073Z,16.96
2022-10-17T08:27:58.760Z,17.05
2022-10-17T08:32:01.920Z,17.15
2022-10-17T08:36:06.288Z,17.25
2022-10-17T08:40:15.290Z,17.39
2022-10-17T08:44:19.757Z,17.49
2022-10-17T08:48:25.575Z,17.62
2022-10-17T08:52:39.123Z,17.68
2022-10-17T08:56:48.845Z,17.79
2022-10-17T09:01:31.950Z,17.86
2022-10-17T09:06:02.071Z,17.99
2022-10-17T09:10:12.869Z,18.10
2022-10-17T09:14:43.200Z,18.14
2022-10-17T09:19:11.127Z,18.25
2022-10-17T09:23:23.606Z,18.28
2022-10-17T09:27:33.697Z,18.29
2022-10-17T09:31:47.305Z,18.35
2022-10-17T09:35:50.857Z,18.41
2022-10-17T09:39:52.410Z,18.51
2022-10-17T09:43:57.495Z,18.57
2022-10-17T09:48:05.512Z,18.65
2022-10-17T09:52:14.747Z,18.75
2022-10-17T09:56:18.652Z,18.87
2022-10-17T10:00:26.874Z,18.99
2022-10-17T10:04:30.416Z,19.09
2022-10-17T10:08:49.655Z,19.16
2022-10-17T10:13:07.118Z,19.27
2022-10-17T10:17:44.242Z,19.34
2022-10-17T10:21:57.708Z,19.43
2022-10-17T10:26:21.029Z,19.50
2022-10-17T10:30:32.799Z,19.60
2022-10-17T10:34:39.261Z,19.68
2022-10-17T10:38:42.463Z,19.78
2022-10-17T10:42:47.477Z,19.87
2022-10-17T10:46:48.993Z,19.95
2022-10-17T10:51:12.461Z,19.97
2022-10-17T10:55:34.389Z,20.04
2022-10-17T10:59:35.883Z,20.07
2022-10-17T11:04:09.823Z,20.08
2022-10-17T11:08:33.617Z,20.15
2022-10-17T11:12:46.804Z,20.15
2022-10-17T11:17:05.889Z,20.20
2022-10-17T11:21:22.915Z,20.33
2022-10-17T11:25:37.698Z,20.50
2022-10-17T11:29:41.548Z,20.61
2022-10-17T11:33:43.090Z,20.81
2022-10-17T11:37:49.357Z,21.05
2022-10-17T11:42:06.648Z,21.15
2022-10-17T11:46:16.718Z,21.28
2022-10-17T11:54:56.219Z,21.45
2022-10-17T11:59:25.358Z,21.55
2022-10-17T12:03:52.494Z,21.67
2022-10-17T12:07:56.718Z,21.73
2022-10-17T12:12:01.150Z,21.77
2022-10-17T12:16:18.843Z,21.86
2022-10-17T12:20:21.258Z,21.94
2022-10-17T12:24:43.037Z,22.06
2022-10-17T12:28:45.634Z,22.17
2022-10-17T12:33:05.629Z,22.27
2022-10-17T12:37:11.365Z,22.38
2022-10-17T12:41:13.064Z,22.54
2022-10-17T12:45:54.567Z,22.63
2022-10-17T12:49:56.816Z,22.67
2022-10-17T12:54:18.678Z,22.74
2022-10-17T12:58:20.404Z,22.76
2022-10-17T13:02:26.892Z,22.82
2022-10-17T13:06:31.023Z,22.96
2022-10-17T13:10:35.703Z,23.00
2022-10-17T13:14:41.547Z,23.07
2022-10-17T13:18:53.002Z,23.15
2022-10-17T13:22:57.091Z,23.18
2022-10-17T13:26:59.269Z,23.23
2022-10-17T13:31:00.815Z,23.35
2022-10-17T13:35:14.166Z,23.39
2022-10-17T13:39:23.196Z,23.47
2022-10-17T13:43:34.048Z,23.53
2022-10-17T13:47:39.098Z,23.60
2022-10-17T13:51:44.624Z,23.63
2022-10-17T13:56:15.830Z,23.69
2022-10-17T14:00:21.851Z,23.69
2022-10-17T14:04:23.386Z,23.63
2022-10-17T14:08:25.438Z,23.67
2022-10-17T14:12:27.188Z,23.63
2022-10-17T14:16:36.358Z,23.71
2022-10-17T14:21:19.854Z,23.68
2022-10-17T14:25:02.453Z,23.60
2022-10-17T14:29:07.638Z,23.59
2022-10-17T14:33:26.050Z,23.52
2022-10-17T14:37:47.935Z,23.45
2022-10-17T14:41:50.227Z,23.45
2022-10-17T14:45:52.183Z,23.34
2022-10-17T14:50:07.302Z,23.26
2022-10-17T14:54:23.600Z,23.26
2022-10-17T14:58:28.728Z,23.26
2022-10-17T15:02:30.891Z,23.23
2022-10-17T15:06:34.452Z,23.18
2022-10-17T15:10:41.700Z,23.03
2022-10-17T15:14:44.368Z,22.93
2022-10-17T15:18:46.040Z,22.82
2022-10-17T15:22:48.037Z,22.82
2022-10-17T15:26:49.705Z,22.93
2022-10-17T15:30:51.339Z,23.00
2022-10-17T15:34:53.032Z,22.96
2022-10-17T15:38:57.698Z,22.94
2022-10-17T15:42:59.280Z,22.89
2022-10-17T15:47:01.564Z,22.78
2022-10-17T15:51:03.139Z,22.67
2022-10-17T15:55:05.683Z,22.59
2022-10-17T15:59:13.110Z,22.46
2022-10-17T16:03:14.822Z,22.35
2022-10-17T16:07:17.912Z,22.24
2022-10-17T16:11:36.244Z,22.14
2022-10-17T16:15:37.794Z,22.04
2022-10-17T16:19:39.850Z,21.91
2022-10-17T16:23:42.345Z,21.82
2022-10-17T16:27:44.042Z,21.70
2022-10-17T16:31:46.331Z,21.58
2022-10-17T16:35:49.270Z,21.49
2022-10-17T16:39:52.543Z,21.40
2022-10-17T16:43:56.378Z,21.30
2022-10-17T16:47:58.200Z,21.21
2022-10-17T16:51:59.797Z,21.11
2022-10-17T16:56:04.844Z,21.00
2022-10-17T17:00:07.928Z,20.91
2022-10-17T17:04:09.563Z,20.81
2022-10-17T17:08:12.645Z,20.75
2022-10-17T17:12:14.385Z,20.71
2022-10-17T17:16:21.759Z,20.66
2022-10-17T17:20:23.380Z,20.60
2022-10-17T17:24:25.474Z,20.57
2022-10-17T17:28:28.099Z,20.54
2022-10-17T17:32:29.673Z,20.54
2022-10-17T17:36:34.019Z,20.53
2022-10-17T17:40:35.581Z,20.48
2022-10-17T17:44:37.139Z,20.46
2022-10-17T17:48:40.180Z,20.42
2022-10-17T17:52:45.382Z,20.41
2022-10-17T17:56:46.954Z,20.38
2022-10-17T18:00:48.458Z,20.35
2022-10-17T18:04:49.982Z,20.34
2022-10-17T18:08:58.008Z,20.34
2022-10-17T18:12:59.579Z,20.33
2022-10-17T18:17:01.099Z,20.33
2022-10-17T18:21:02.633Z,20.34
2022-10-17T18:25:05.524Z,20.35
2022-10-17T18:29:07.135Z,20.35
2022-10-17T18:33:08.665Z,20.31
2022-10-17T18:37:10.231Z,20.31
2022-10-17T18:41:17.551Z,20.27
2022-10-17T18:45:19.292Z,20.27
2022-10-17T18:49:23.156Z,20.26
2022-10-17T18:53:24.775Z,20.20
2022-10-17T18:57:26.493Z,20.19
2022-10-17T19:01:28.175Z,20.16
2022-10-17T19:05:29.709Z,20.13
2022-10-17T19:09:31.364Z,20.10
2022-10-17T19:13:33.579Z,20.05
2022-10-17T19:17:35.174Z,19.98
2022-10-17T19:21:36.870Z,19.94
2022-10-17T19:25:38.373Z,19.86
2022-10-17T19:29:43.431Z,19.83
2022-10-17T19:33:45.164Z,19.76
2022-10-17T19:37:46.748Z,19.65
2022-10-17T19:41:48.917Z,19.61
2022-10-17T19:45:55.404Z,19.58
2022-10-17T19:49:56.969Z,19.58
2022-10-17T19:54:00.756Z,19.53
2022-10-17T19:58:02.863Z,19.53
2022-10-17T20:02:04.732Z,19.53
2022-10-17T20:06:06.745Z,19.50
2022-10-17T20:10:08.713Z,19.49
2022-10-17T20:14:10.327Z,19.43
2022-10-17T20:18:12.108Z,19.40
2022-10-17T20:22:13.715Z,19.38
2022-10-17T20:26:37.170Z,19.32
2022-10-17T20:30:46.370Z,19.32
2022-10-17T20:34:47.920Z,19.30
2022-10-17T20:38:54.294Z,19.30
2022-10-17T20:42:55.809Z,19.28
2022-10-17T20:47:02.211Z,19.27
2022-10-17T20:51:08.590Z,19.25
2022-10-17T20:55:10.087Z,19.20
2022-10-17T20:59:14.365Z,19.17
2022-10-17T21:03:15.984Z,19.16
2022-10-17T21:07:17.491Z,19.13
2022-10-17T21:11:22.241Z,19.13
2022-10-17T21:15:23.761Z,19.10
2022-10-17T21:19:25.252Z,19.09
2022-10-17T21:23:27.848Z,19.09
2022-10-17T21:27:29.346Z,19.09
2022-10-17T21:31:33.059Z,19.07
2022-10-17T21:35:34.593Z,19.07
2022-10-17T21:39:36.102Z,19.07
2022-10-17T21:43:38.193Z,19.02
2022-10-17T21:47:41.761Z,18.97
2022-10-17T21:51:47.807Z,18.96
2022-10-17T21:55:49.323Z,18.96
2022-10-17T21:59:50.827Z,18.93
2022-10-17T22:04:03.973Z,18.93
2022-10-17T22:08:05.642Z,18.93
2022-10-17T22:12:07.197Z,18.91
2022-10-17T22:16:11.340Z,18.91
2022-10-17T22:20:12.860Z,18.89
2022-10-17T22:24:15.991Z,18.87
2022-10-17T22:28:17.691Z,18.86
2022-10-17T22:32:22.365Z,18.83
2022-10-17T22:36:24.306Z,18.82
2022-10-17T22:40:25.811Z,18.79
2022-10-17T22:44:27.342Z,18.74
2022-10-17T22:48:29.713Z,18.72
2022-10-17T22:52:31.462Z,18.69
2022-10-17T22:56:33.238Z,18.69
2022-10-17T23:00:34.769Z,18.68
2022-10-17T23:04:36.816Z,18.72
2022-10-17T23:08:38.562Z,18.72
2022-10-17T23:12:40.140Z,18.75
2022-10-17T23:16:41.692Z,18.75
2022-10-17T23:20:43.190Z,18.74
2022-10-17T23:24:44.702Z,18.71
2022-10-17T23:28:46.302Z,18.66
2022-10-17T23:32:47.820Z,18.65
2022-10-17T23:36:49.350Z,18.64
2022-10-17T23:40:50.919Z,18.62
2022-10-17T23:44:52.577Z,18.64
2022-10-17T23:48:54.179Z,18.64
2022-10-17T23:52:55.702Z,18.60
2022-10-17T23:56:57.238Z,18.57
